sensor_id;sensor_type;location;lat;lon;timestamp;P1;P2;P0
73917;PMS5003;63639;52.280;5.162;2022-10-01T00:01:11;14;14;
73917;PMS5003;63639;52.280;5.162;2022-10-01T00:03:40;15;15;
73917;PMS5003;63639;52.280;5.162;2022-10-01T00:06:09;15;15;
73917;PMS5003;63639;52.280;5.162;2022-10-01T00:08:38;14;14;
73917;PMS5003;63639;52.280;5.162;2022-10-01T00:11:07;15;15;
73917;PMS5003;63639;52.280;5.162;2022-10-01T00:13:34;13;12;
73917;PMS5003;63639;52.280;5.162;2022-10-01T00:16:03;15;14;
73917;PMS5003;63639;52.280;5.162;2022-10-01T00:18:30;13;13;
73917;PMS5003;63639;52.280;5.162;2022-10-01T00:20:57;16;14;
73917;PMS5003;63639;52.280;5.162;2022-10-01T00:23:23;13;12;
73917;PMS5003;63639;52.280;5.162;2022-10-01T00:25:50;12;12;
73917;PMS5003;63639;52.280;5.162;2022-10-01T00:28:17;15;13;
73917;PMS5003;63639;52.280;5.162;2022-10-01T00:30:45;13;13;
73917;PMS5003;63639;52.280;5.162;2022-10-01T00:33:13;14;14;
73917;PMS5003;63639;52.280;5.162;2022-10-01T00:35:40;13;13;
73917;PMS5003;63639;52.280;5.162;2022-10-01T00:38:06;13;12;
73917;PMS5003;63639;52.280;5.162;2022-10-01T00:40:33;13;12;
73917;PMS5003;63639;52.280;5.162;2022-10-01T00:43:00;15;13;
73917;PMS5003;63639;52.280;5.162;2022-10-01T00:45:27;13;11;
73917;PMS5003;63639;52.280;5.162;2022-10-01T00:47:54;15;13;
73917;PMS5003;63639;52.280;5.162;2022-10-01T00:50:24;12;11;
73917;PMS5003;63639;52.280;5.162;2022-10-01T00:52:56;12;12;
73917;PMS5003;63639;52.280;5.162;2022-10-01T00:55:27;13;13;
73917;PMS5003;63639;52.280;5.162;2022-10-01T00:57:58;11;11;
73917;PMS5003;63639;52.280;5.162;2022-10-01T01:02:11;11;11;
73917;PMS5003;63639;52.280;5.162;2022-10-01T01:04:38;11;11;
73917;PMS5003;63639;52.280;5.162;2022-10-01T01:07:06;11;11;
73917;PMS5003;63639;52.280;5.162;2022-10-01T01:09:34;13;13;
73917;PMS5003;63639;52.280;5.162;2022-10-01T01:12:06;13;13;
73917;PMS5003;63639;52.280;5.162;2022-10-01T01:14:43;10;10;
73917;PMS5003;63639;52.280;5.162;2022-10-01T01:17:20;9;8;
73917;PMS5003;63639;52.280;5.162;2022-10-01T01:19:56;9;9;
73917;PMS5003;63639;52.280;5.162;2022-10-01T01:22:32;12;9;
73917;PMS5003;63639;52.280;5.162;2022-10-01T01:25:03;9;9;
73917;PMS5003;63639;52.280;5.162;2022-10-01T01:27:39;6;6;
73917;PMS5003;63639;52.280;5.162;2022-10-01T01:30:12;8;8;
73917;PMS5003;63639;52.280;5.162;2022-10-01T01:32:43;9;9;
73917;PMS5003;63639;52.280;5.162;2022-10-01T01:35:18;7;7;
73917;PMS5003;63639;52.280;5.162;2022-10-01T01:37:50;12;11;
73917;PMS5003;63639;52.280;5.162;2022-10-01T01:40:19;6;6;
73917;PMS5003;63639;52.280;5.162;2022-10-01T01:42:47;7;7;
73917;PMS5003;63639;52.280;5.162;2022-10-01T01:45:16;7;7;
73917;PMS5003;63639;52.280;5.162;2022-10-01T01:47:46;7;7;
73917;PMS5003;63639;52.280;5.162;2022-10-01T01:50:14;7;7;
73917;PMS5003;63639;52.280;5.162;2022-10-01T01:52:42;7;7;
73917;PMS5003;63639;52.280;5.162;2022-10-01T01:55:10;7;7;
73917;PMS5003;63639;52.280;5.162;2022-10-01T01:57:39;9;6;
73917;PMS5003;63639;52.280;5.162;2022-10-01T02:00:09;7;7;
73917;PMS5003;63639;52.280;5.162;2022-10-01T02:02:37;6;6;
73917;PMS5003;63639;52.280;5.162;2022-10-01T02:05:08;7;7;
73917;PMS5003;63639;52.280;5.162;2022-10-01T02:07:44;4;4;
73917;PMS5003;63639;52.280;5.162;2022-10-01T02:10:39;7;7;
73917;PMS5003;63639;52.280;5.162;2022-10-01T02:13:22;8;6;
73917;PMS5003;63639;52.280;5.162;2022-10-01T02:16:01;5;5;
73917;PMS5003;63639;52.280;5.162;2022-10-01T02:18:36;6;5;
73917;PMS5003;63639;52.280;5.162;2022-10-01T02:21:12;7;7;
73917;PMS5003;63639;52.280;5.162;2022-10-01T02:23:47;6;5;
73917;PMS5003;63639;52.280;5.162;2022-10-01T02:26:18;5;5;
73917;PMS5003;63639;52.280;5.162;2022-10-01T02:28:47;5;5;
73917;PMS5003;63639;52.280;5.162;2022-10-01T02:31:15;4;4;
73917;PMS5003;63639;52.280;5.162;2022-10-01T02:33:44;6;6;
73917;PMS5003;63639;52.280;5.162;2022-10-01T02:36:13;5;5;
73917;PMS5003;63639;52.280;5.162;2022-10-01T02:38:43;4;4;
73917;PMS5003;63639;52.280;5.162;2022-10-01T02:41:12;6;6;
73917;PMS5003;63639;52.280;5.162;2022-10-01T02:43:44;7;7;
73917;PMS5003;63639;52.280;5.162;2022-10-01T02:46:16;4;4;
73917;PMS5003;63639;52.280;5.162;2022-10-01T02:48:48;4;4;
73917;PMS5003;63639;52.280;5.162;2022-10-01T02:51:19;3;3;
73917;PMS5003;63639;52.280;5.162;2022-10-01T02:53:54;3;3;
73917;PMS5003;63639;52.280;5.162;2022-10-01T02:56:26;5;5;
73917;PMS5003;63639;52.280;5.162;2022-10-01T02:58:53;4;4;
73917;PMS5003;63639;52.280;5.162;2022-10-01T03:01:20;4;4;
73917;PMS5003;63639;52.280;5.162;2022-10-01T03:03:47;4;4;
73917;PMS5003;63639;52.280;5.162;2022-10-01T03:06:14;6;6;
73917;PMS5003;63639;52.280;5.162;2022-10-01T03:08:40;4;4;
73917;PMS5003;63639;52.280;5.162;2022-10-01T03:11:07;6;6;
73917;PMS5003;63639;52.280;5.162;2022-10-01T03:13:34;5;5;
73917;PMS5003;63639;52.280;5.162;2022-10-01T03:16:01;6;4;
73917;PMS5003;63639;52.280;5.162;2022-10-01T03:18:29;7;6;
73917;PMS5003;63639;52.280;5.162;2022-10-01T03:20:55;7;7;
73917;PMS5003;63639;52.280;5.162;2022-10-01T03:23:22;6;6;
73917;PMS5003;63639;52.280;5.162;2022-10-01T03:25:49;6;6;
73917;PMS5003;63639;52.280;5.162;2022-10-01T03:28:16;7;6;
73917;PMS5003;63639;52.280;5.162;2022-10-01T03:30:43;8;7;
73917;PMS5003;63639;52.280;5.162;2022-10-01T03:33:10;7;7;
73917;PMS5003;63639;52.280;5.162;2022-10-01T03:35:36;6;6;
73917;PMS5003;63639;52.280;5.162;2022-10-01T03:38:03;7;7;
73917;PMS5003;63639;52.280;5.162;2022-10-01T03:40:30;6;6;
73917;PMS5003;63639;52.280;5.162;2022-10-01T03:42:57;7;7;
73917;PMS5003;63639;52.280;5.162;2022-10-01T03:45:24;6;6;
73917;PMS5003;63639;52.280;5.162;2022-10-01T03:47:51;7;7;
73917;PMS5003;63639;52.280;5.162;2022-10-01T03:50:18;9;8;
73917;PMS5003;63639;52.280;5.162;2022-10-01T03:52:45;7;7;
73917;PMS5003;63639;52.280;5.162;2022-10-01T03:55:12;11;10;
73917;PMS5003;63639;52.280;5.162;2022-10-01T03:57:39;11;11;
73917;PMS5003;63639;52.280;5.162;2022-10-01T04:00:07;9;9;
73917;PMS5003;63639;52.280;5.162;2022-10-01T04:02:35;8;8;
73917;PMS5003;63639;52.280;5.162;2022-10-01T04:05:02;9;9;
73917;PMS5003;63639;52.280;5.162;2022-10-01T04:07:30;9;9;
73917;PMS5003;63639;52.280;5.162;2022-10-01T04:09:56;9;9;
73917;PMS5003;63639;52.280;5.162;2022-10-01T04:12:23;10;9;
73917;PMS5003;63639;52.280;5.162;2022-10-01T04:14:50;10;10;
73917;PMS5003;63639;52.280;5.162;2022-10-01T04:17:17;8;8;
73917;PMS5003;63639;52.280;5.162;2022-10-01T04:19:44;13;12;
73917;PMS5003;63639;52.280;5.162;2022-10-01T04:22:10;9;9;
73917;PMS5003;63639;52.280;5.162;2022-10-01T04:24:38;10;10;
73917;PMS5003;63639;52.280;5.162;2022-10-01T04:27:05;10;10;
73917;PMS5003;63639;52.280;5.162;2022-10-01T04:29:32;12;11;
73917;PMS5003;63639;52.280;5.162;2022-10-01T04:31:59;11;10;
73917;PMS5003;63639;52.280;5.162;2022-10-01T04:34:26;9;8;
73917;PMS5003;63639;52.280;5.162;2022-10-01T04:36:55;9;9;
73917;PMS5003;63639;52.280;5.162;2022-10-01T04:39:22;11;11;
73917;PMS5003;63639;52.280;5.162;2022-10-01T04:41:48;9;8;
73917;PMS5003;63639;52.280;5.162;2022-10-01T04:44:15;11;10;
73917;PMS5003;63639;52.280;5.162;2022-10-01T04:46:42;9;9;
73917;PMS5003;63639;52.280;5.162;2022-10-01T04:49:09;10;10;
73917;PMS5003;63639;52.280;5.162;2022-10-01T04:51:35;9;9;
73917;PMS5003;63639;52.280;5.162;2022-10-01T04:54:02;11;11;
73917;PMS5003;63639;52.280;5.162;2022-10-01T04:56:29;13;11;
73917;PMS5003;63639;52.280;5.162;2022-10-01T04:58:56;9;9;
73917;PMS5003;63639;52.280;5.162;2022-10-01T05:01:22;10;10;
73917;PMS5003;63639;52.280;5.162;2022-10-01T05:03:49;7;7;
73917;PMS5003;63639;52.280;5.162;2022-10-01T05:06:16;11;10;
73917;PMS5003;63639;52.280;5.162;2022-10-01T05:08:43;9;9;
73917;PMS5003;63639;52.280;5.162;2022-10-01T05:11:11;11;9;
73917;PMS5003;63639;52.280;5.162;2022-10-01T05:13:38;10;10;
73917;PMS5003;63639;52.280;5.162;2022-10-01T05:16:04;9;9;
73917;PMS5003;63639;52.280;5.162;2022-10-01T05:18:32;9;9;
73917;PMS5003;63639;52.280;5.162;2022-10-01T05:21:02;9;9;
73917;PMS5003;63639;52.280;5.162;2022-10-01T05:23:30;10;10;
73917;PMS5003;63639;52.280;5.162;2022-10-01T05:25:57;11;11;
73917;PMS5003;63639;52.280;5.162;2022-10-01T05:28:24;9;9;
73917;PMS5003;63639;52.280;5.162;2022-10-01T05:30:51;11;11;
73917;PMS5003;63639;52.280;5.162;2022-10-01T05:33:18;8;8;
73917;PMS5003;63639;52.280;5.162;2022-10-01T05:35:45;8;8;
73917;PMS5003;63639;52.280;5.162;2022-10-01T05:38:12;10;7;
73917;PMS5003;63639;52.280;5.162;2022-10-01T05:40:39;8;8;
73917;PMS5003;63639;52.280;5.162;2022-10-01T05:43:11;12;9;
73917;PMS5003;63639;52.280;5.162;2022-10-01T05:45:38;9;9;
73917;PMS5003;63639;52.280;5.162;2022-10-01T05:48:07;8;8;
73917;PMS5003;63639;52.280;5.162;2022-10-01T05:50:35;9;9;
73917;PMS5003;63639;52.280;5.162;2022-10-01T05:53:04;8;8;
73917;PMS5003;63639;52.280;5.162;2022-10-01T05:55:33;8;8;
73917;PMS5003;63639;52.280;5.162;2022-10-01T05:58:02;8;8;
73917;PMS5003;63639;52.280;5.162;2022-10-01T06:00:31;8;8;
73917;PMS5003;63639;52.280;5.162;2022-10-01T06:03:00;8;7;
73917;PMS5003;63639;52.280;5.162;2022-10-01T06:05:28;8;7;
73917;PMS5003;63639;52.280;5.162;2022-10-01T06:07:56;8;8;
73917;PMS5003;63639;52.280;5.162;2022-10-01T06:10:24;7;7;
73917;PMS5003;63639;52.280;5.162;2022-10-01T06:12:51;8;8;
73917;PMS5003;63639;52.280;5.162;2022-10-01T06:15:23;7;7;
73917;PMS5003;63639;52.280;5.162;2022-10-01T06:17:50;7;7;
73917;PMS5003;63639;52.280;5.162;2022-10-01T06:20:17;9;9;
73917;PMS5003;63639;52.280;5.162;2022-10-01T06:22:51;8;7;
73917;PMS5003;63639;52.280;5.162;2022-10-01T06:25:20;9;7;
73917;PMS5003;63639;52.280;5.162;2022-10-01T06:27:50;5;5;
73917;PMS5003;63639;52.280;5.162;2022-10-01T06:30:17;7;7;
73917;PMS5003;63639;52.280;5.162;2022-10-01T06:32:44;6;5;
73917;PMS5003;63639;52.280;5.162;2022-10-01T06:35:11;8;8;
73917;PMS5003;63639;52.280;5.162;2022-10-01T06:37:38;6;6;
73917;PMS5003;63639;52.280;5.162;2022-10-01T06:40:05;7;6;
73917;PMS5003;63639;52.280;5.162;2022-10-01T06:42:32;4;4;
73917;PMS5003;63639;52.280;5.162;2022-10-01T06:44:59;4;4;
73917;PMS5003;63639;52.280;5.162;2022-10-01T06:47:27;7;7;
73917;PMS5003;63639;52.280;5.162;2022-10-01T06:49:54;6;6;
73917;PMS5003;63639;52.280;5.162;2022-10-01T06:52:21;6;6;
73917;PMS5003;63639;52.280;5.162;2022-10-01T06:54:47;5;5;
73917;PMS5003;63639;52.280;5.162;2022-10-01T06:57:14;6;6;
73917;PMS5003;63639;52.280;5.162;2022-10-01T06:59:46;5;5;
73917;PMS5003;63639;52.280;5.162;2022-10-01T07:02:18;5;5;
73917;PMS5003;63639;52.280;5.162;2022-10-01T07:04:52;9;9;
73917;PMS5003;63639;52.280;5.162;2022-10-01T07:07:18;7;7;
73917;PMS5003;63639;52.280;5.162;2022-10-01T07:09:46;5;5;
73917;PMS5003;63639;52.280;5.162;2022-10-01T07:12:13;6;6;
73917;PMS5003;63639;52.280;5.162;2022-10-01T07:14:40;4;4;
73917;PMS5003;63639;52.280;5.162;2022-10-01T07:17:07;5;5;
73917;PMS5003;63639;52.280;5.162;2022-10-01T07:19:33;6;6;
73917;PMS5003;63639;52.280;5.162;2022-10-01T07:22:00;5;5;
73917;PMS5003;63639;52.280;5.162;2022-10-01T07:24:27;7;6;
73917;PMS5003;63639;52.280;5.162;2022-10-01T07:26:54;5;5;
73917;PMS5003;63639;52.280;5.162;2022-10-01T07:29:21;6;6;
73917;PMS5003;63639;52.280;5.162;2022-10-01T07:31:49;6;4;
73917;PMS5003;63639;52.280;5.162;2022-10-01T07:34:16;4;4;
73917;PMS5003;63639;52.280;5.162;2022-10-01T07:36:43;4;2;
73917;PMS5003;63639;52.280;5.162;2022-10-01T07:39:10;8;5;
73917;PMS5003;63639;52.280;5.162;2022-10-01T07:41:37;4;4;
73917;PMS5003;63639;52.280;5.162;2022-10-01T07:44:04;4;4;
73917;PMS5003;63639;52.280;5.162;2022-10-01T07:46:31;4;4;
73917;PMS5003;63639;52.280;5.162;2022-10-01T07:48:58;4;4;
73917;PMS5003;63639;52.280;5.162;2022-10-01T07:51:25;6;6;
73917;PMS5003;63639;52.280;5.162;2022-10-01T07:53:52;4;4;
73917;PMS5003;63639;52.280;5.162;2022-10-01T07:56:19;5;4;
73917;PMS5003;63639;52.280;5.162;2022-10-01T07:58:47;5;5;
73917;PMS5003;63639;52.280;5.162;2022-10-01T08:01:14;2;2;
73917;PMS5003;63639;52.280;5.162;2022-10-01T08:03:40;5;4;
73917;PMS5003;63639;52.280;5.162;2022-10-01T08:06:10;4;4;
73917;PMS5003;63639;52.280;5.162;2022-10-01T08:08:37;3;3;
73917;PMS5003;63639;52.280;5.162;2022-10-01T08:11:03;3;3;
73917;PMS5003;63639;52.280;5.162;2022-10-01T08:13:30;4;4;
73917;PMS5003;63639;52.280;5.162;2022-10-01T08:15:57;2;2;
73917;PMS5003;63639;52.280;5.162;2022-10-01T08:18:24;4;4;
73917;PMS5003;63639;52.280;5.162;2022-10-01T08:20:51;4;4;
73917;PMS5003;63639;52.280;5.162;2022-10-01T08:23:23;5;5;
73917;PMS5003;63639;52.280;5.162;2022-10-01T08:25:50;5;5;
73917;PMS5003;63639;52.280;5.162;2022-10-01T08:28:17;6;4;
73917;PMS5003;63639;52.280;5.162;2022-10-01T08:30:45;7;4;
73917;PMS5003;63639;52.280;5.162;2022-10-01T08:33:12;4;4;
73917;PMS5003;63639;52.280;5.162;2022-10-01T08:35:40;4;3;
73917;PMS5003;63639;52.280;5.162;2022-10-01T08:38:08;4;3;
73917;PMS5003;63639;52.280;5.162;2022-10-01T08:40:40;3;3;
73917;PMS5003;63639;52.280;5.162;2022-10-01T08:43:11;5;3;
73917;PMS5003;63639;52.280;5.162;2022-10-01T08:45:51;5;4;
73917;PMS5003;63639;52.280;5.162;2022-10-01T08:48:23;4;4;
73917;PMS5003;63639;52.280;5.162;2022-10-01T08:50:56;3;3;
73917;PMS5003;63639;52.280;5.162;2022-10-01T08:53:28;6;3;
73917;PMS5003;63639;52.280;5.162;2022-10-01T08:56:00;5;3;
73917;PMS5003;63639;52.280;5.162;2022-10-01T08:58:31;2;2;
73917;PMS5003;63639;52.280;5.162;2022-10-01T09:01:08;4;3;
73917;PMS5003;63639;52.280;5.162;2022-10-01T09:03:37;3;3;
73917;PMS5003;63639;52.280;5.162;2022-10-01T09:06:09;3;3;
73917;PMS5003;63639;52.280;5.162;2022-10-01T09:08:46;3;3;
73917;PMS5003;63639;52.280;5.162;2022-10-01T09:11:25;3;3;
73917;PMS5003;63639;52.280;5.162;2022-10-01T09:14:08;2;2;
73917;PMS5003;63639;52.280;5.162;2022-10-01T09:16:47;6;5;
73917;PMS5003;63639;52.280;5.162;2022-10-01T09:19:24;3;3;
73917;PMS5003;63639;52.280;5.162;2022-10-01T09:22:10;4;3;
73917;PMS5003;63639;52.280;5.162;2022-10-01T09:24:47;7;5;
73917;PMS5003;63639;52.280;5.162;2022-10-01T09:27:26;3;3;
73917;PMS5003;63639;52.280;5.162;2022-10-01T09:29:54;4;4;
73917;PMS5003;63639;52.280;5.162;2022-10-01T09:32:25;6;5;
73917;PMS5003;63639;52.280;5.162;2022-10-01T09:34:56;3;3;
73917;PMS5003;63639;52.280;5.162;2022-10-01T09:37:25;3;3;
73917;PMS5003;63639;52.280;5.162;2022-10-01T09:40:02;3;3;
73917;PMS5003;63639;52.280;5.162;2022-10-01T09:42:37;3;3;
73917;PMS5003;63639;52.280;5.162;2022-10-01T09:45:05;4;3;
73917;PMS5003;63639;52.280;5.162;2022-10-01T09:47:37;6;6;
73917;PMS5003;63639;52.280;5.162;2022-10-01T09:50:04;3;3;
73917;PMS5003;63639;52.280;5.162;2022-10-01T09:52:33;1;1;
73917;PMS5003;63639;52.280;5.162;2022-10-01T09:55:03;5;3;
73917;PMS5003;63639;52.280;5.162;2022-10-01T09:57:32;3;3;
73917;PMS5003;63639;52.280;5.162;2022-10-01T10:00:04;3;3;
73917;PMS5003;63639;52.280;5.162;2022-10-01T10:02:33;3;2;
73917;PMS5003;63639;52.280;5.162;2022-10-01T10:05:06;2;2;
73917;PMS5003;63639;52.280;5.162;2022-10-01T10:07:38;4;4;
73917;PMS5003;63639;52.280;5.162;2022-10-01T10:10:10;3;2;
73917;PMS5003;63639;52.280;5.162;2022-10-01T10:12:43;3;3;
73917;PMS5003;63639;52.280;5.162;2022-10-01T10:15:12;3;3;
73917;PMS5003;63639;52.280;5.162;2022-10-01T10:17:43;4;4;
73917;PMS5003;63639;52.280;5.162;2022-10-01T10:20:17;6;2;
73917;PMS5003;63639;52.280;5.162;2022-10-01T10:22:48;4;4;
73917;PMS5003;63639;52.280;5.162;2022-10-01T10:25:19;6;5;
73917;PMS5003;63639;52.280;5.162;2022-10-01T10:27:49;6;5;
73917;PMS5003;63639;52.280;5.162;2022-10-01T10:30:17;5;5;
73917;PMS5003;63639;52.280;5.162;2022-10-01T10:32:45;6;4;
73917;PMS5003;63639;52.280;5.162;2022-10-01T10:35:13;8;4;
73917;PMS5003;63639;52.280;5.162;2022-10-01T10:37:44;6;5;
73917;PMS5003;63639;52.280;5.162;2022-10-01T10:40:15;6;4;
73917;PMS5003;63639;52.280;5.162;2022-10-01T10:42:46;6;5;
73917;PMS5003;63639;52.280;5.162;2022-10-01T10:45:15;5;5;
73917;PMS5003;63639;52.280;5.162;2022-10-01T10:47:46;5;4;
73917;PMS5003;63639;52.280;5.162;2022-10-01T10:50:22;4;4;
73917;PMS5003;63639;52.280;5.162;2022-10-01T10:52:55;3;3;
73917;PMS5003;63639;52.280;5.162;2022-10-01T10:55:23;5;5;
73917;PMS5003;63639;52.280;5.162;2022-10-01T10:57:53;6;5;
73917;PMS5003;63639;52.280;5.162;2022-10-01T11:00:21;2;2;
73917;PMS5003;63639;52.280;5.162;2022-10-01T11:02:50;3;3;
73917;PMS5003;63639;52.280;5.162;2022-10-01T11:05:21;5;5;
73917;PMS5003;63639;52.280;5.162;2022-10-01T11:07:52;5;4;
73917;PMS5003;63639;52.280;5.162;2022-10-01T11:10:23;3;3;
73917;PMS5003;63639;52.280;5.162;2022-10-01T11:13:05;6;4;
73917;PMS5003;63639;52.280;5.162;2022-10-01T11:15:52;3;3;
73917;PMS5003;63639;52.280;5.162;2022-10-01T11:18:35;3;3;
73917;PMS5003;63639;52.280;5.162;2022-10-01T11:21:13;3;3;
73917;PMS5003;63639;52.280;5.162;2022-10-01T11:23:53;4;4;
73917;PMS5003;63639;52.280;5.162;2022-10-01T11:26:36;4;3;
73917;PMS5003;63639;52.280;5.162;2022-10-01T11:29:14;5;5;
73917;PMS5003;63639;52.280;5.162;2022-10-01T11:31:51;3;3;
73917;PMS5003;63639;52.280;5.162;2022-10-01T11:34:35;6;4;
73917;PMS5003;63639;52.280;5.162;2022-10-01T11:37:15;10;6;
73917;PMS5003;63639;52.280;5.162;2022-10-01T11:40:00;4;4;
73917;PMS5003;63639;52.280;5.162;2022-10-01T11:42:31;3;3;
73917;PMS5003;63639;52.280;5.162;2022-10-01T11:45:03;6;4;
73917;PMS5003;63639;52.280;5.162;2022-10-01T11:47:36;4;4;
73917;PMS5003;63639;52.280;5.162;2022-10-01T11:50:12;8;6;
73917;PMS5003;63639;52.280;5.162;2022-10-01T11:52:44;5;5;
73917;PMS5003;63639;52.280;5.162;2022-10-01T11:55:17;5;5;
73917;PMS5003;63639;52.280;5.162;2022-10-01T11:57:50;5;5;
73917;PMS5003;63639;52.280;5.162;2022-10-01T12:00:21;4;4;
73917;PMS5003;63639;52.280;5.162;2022-10-01T12:02:48;7;5;
73917;PMS5003;63639;52.280;5.162;2022-10-01T12:05:19;4;4;
73917;PMS5003;63639;52.280;5.162;2022-10-01T12:07:52;5;5;
73917;PMS5003;63639;52.280;5.162;2022-10-01T12:10:28;4;4;
73917;PMS5003;63639;52.280;5.162;2022-10-01T12:13:01;3;3;
73917;PMS5003;63639;52.280;5.162;2022-10-01T12:15:36;5;5;
73917;PMS5003;63639;52.280;5.162;2022-10-01T12:18:12;5;5;
73917;PMS5003;63639;52.280;5.162;2022-10-01T12:20:44;6;5;
73917;PMS5003;63639;52.280;5.162;2022-10-01T12:23:16;7;4;
73917;PMS5003;63639;52.280;5.162;2022-10-01T12:25:48;6;6;
73917;PMS5003;63639;52.280;5.162;2022-10-01T12:28:27;4;4;
73917;PMS5003;63639;52.280;5.162;2022-10-01T12:31:03;4;4;
73917;PMS5003;63639;52.280;5.162;2022-10-01T12:33:36;4;4;
73917;PMS5003;63639;52.280;5.162;2022-10-01T12:36:16;4;3;
73917;PMS5003;63639;52.280;5.162;2022-10-01T12:38:54;4;4;
73917;PMS5003;63639;52.280;5.162;2022-10-01T12:41:36;3;3;
73917;PMS5003;63639;52.280;5.162;2022-10-01T12:44:20;7;5;
73917;PMS5003;63639;52.280;5.162;2022-10-01T12:47:03;2;2;
73917;PMS5003;63639;52.280;5.162;2022-10-01T12:49:47;4;2;
73917;PMS5003;63639;52.280;5.162;2022-10-01T12:52:26;6;3;
73917;PMS5003;63639;52.280;5.162;2022-10-01T12:55:07;5;4;
73917;PMS5003;63639;52.280;5.162;2022-10-01T12:57:44;5;3;
73917;PMS5003;63639;52.280;5.162;2022-10-01T13:00:20;5;4;
73917;PMS5003;63639;52.280;5.162;2022-10-01T13:02:53;6;5;
73917;PMS5003;63639;52.280;5.162;2022-10-01T13:05:36;5;4;
73917;PMS5003;63639;52.280;5.162;2022-10-01T13:08:22;5;5;
73917;PMS5003;63639;52.280;5.162;2022-10-01T13:11:02;6;5;
73917;PMS5003;63639;52.280;5.162;2022-10-01T13:13:37;6;6;
73917;PMS5003;63639;52.280;5.162;2022-10-01T13:16:06;4;4;
73917;PMS5003;63639;52.280;5.162;2022-10-01T13:18:40;7;5;
73917;PMS5003;63639;52.280;5.162;2022-10-01T13:21:18;7;7;
73917;PMS5003;63639;52.280;5.162;2022-10-01T13:23:56;7;5;
73917;PMS5003;63639;52.280;5.162;2022-10-01T13:26:28;8;8;
73917;PMS5003;63639;52.280;5.162;2022-10-01T13:29:05;6;6;
73917;PMS5003;63639;52.280;5.162;2022-10-01T13:31:38;5;3;
73917;PMS5003;63639;52.280;5.162;2022-10-01T13:34:22;7;7;
73917;PMS5003;63639;52.280;5.162;2022-10-01T13:36:53;5;5;
73917;PMS5003;63639;52.280;5.162;2022-10-01T13:39:20;4;3;
73917;PMS5003;63639;52.280;5.162;2022-10-01T13:41:48;10;8;
73917;PMS5003;63639;52.280;5.162;2022-10-01T13:44:23;7;7;
73917;PMS5003;63639;52.280;5.162;2022-10-01T13:47:00;6;5;
73917;PMS5003;63639;52.280;5.162;2022-10-01T13:49:29;5;5;
73917;PMS5003;63639;52.280;5.162;2022-10-01T13:51:57;7;6;
73917;PMS5003;63639;52.280;5.162;2022-10-01T13:54:26;7;7;
73917;PMS5003;63639;52.280;5.162;2022-10-01T13:57:06;6;6;
73917;PMS5003;63639;52.280;5.162;2022-10-01T13:59:34;7;5;
73917;PMS5003;63639;52.280;5.162;2022-10-01T14:02:18;7;7;
73917;PMS5003;63639;52.280;5.162;2022-10-01T14:04:56;5;4;
73917;PMS5003;63639;52.280;5.162;2022-10-01T14:07:34;4;4;
73917;PMS5003;63639;52.280;5.162;2022-10-01T14:10:04;4;3;
73917;PMS5003;63639;52.280;5.162;2022-10-01T14:12:36;4;4;
73917;PMS5003;63639;52.280;5.162;2022-10-01T14:15:13;3;3;
73917;PMS5003;63639;52.280;5.162;2022-10-01T14:17:43;5;5;
73917;PMS5003;63639;52.280;5.162;2022-10-01T14:20:15;6;6;
73917;PMS5003;63639;52.280;5.162;2022-10-01T14:22:47;6;5;
73917;PMS5003;63639;52.280;5.162;2022-10-01T14:25:31;5;4;
73917;PMS5003;63639;52.280;5.162;2022-10-01T14:28:10;5;4;
73917;PMS5003;63639;52.280;5.162;2022-10-01T14:30:47;5;4;
73917;PMS5003;63639;52.280;5.162;2022-10-01T14:33:31;7;6;
73917;PMS5003;63639;52.280;5.162;2022-10-01T14:36:13;6;6;
73917;PMS5003;63639;52.280;5.162;2022-10-01T14:38:42;6;4;
73917;PMS5003;63639;52.280;5.162;2022-10-01T14:41:15;6;6;
73917;PMS5003;63639;52.280;5.162;2022-10-01T14:43:49;10;7;
73917;PMS5003;63639;52.280;5.162;2022-10-01T14:46:17;7;5;
73917;PMS5003;63639;52.280;5.162;2022-10-01T14:48:54;11;6;
73917;PMS5003;63639;52.280;5.162;2022-10-01T14:51:23;3;3;
73917;PMS5003;63639;52.280;5.162;2022-10-01T14:53:52;7;5;
73917;PMS5003;63639;52.280;5.162;2022-10-01T14:56:21;6;5;
73917;PMS5003;63639;52.280;5.162;2022-10-01T14:58:55;4;4;
73917;PMS5003;63639;52.280;5.162;2022-10-01T15:01:26;7;7;
73917;PMS5003;63639;52.280;5.162;2022-10-01T15:03:54;7;7;
73917;PMS5003;63639;52.280;5.162;2022-10-01T15:06:23;7;7;
73917;PMS5003;63639;52.280;5.162;2022-10-01T15:08:52;6;6;
73917;PMS5003;63639;52.280;5.162;2022-10-01T15:11:21;6;6;
73917;PMS5003;63639;52.280;5.162;2022-10-01T15:13:56;6;4;
73917;PMS5003;63639;52.280;5.162;2022-10-01T15:16:29;5;4;
73917;PMS5003;63639;52.280;5.162;2022-10-01T15:18:57;7;7;
73917;PMS5003;63639;52.280;5.162;2022-10-01T15:21:27;9;9;
73917;PMS5003;63639;52.280;5.162;2022-10-01T15:24:00;11;8;
73917;PMS5003;63639;52.280;5.162;2022-10-01T15:26:30;6;6;
73917;PMS5003;63639;52.280;5.162;2022-10-01T15:29:00;7;7;
73917;PMS5003;63639;52.280;5.162;2022-10-01T15:31:28;7;6;
73917;PMS5003;63639;52.280;5.162;2022-10-01T15:34:02;6;6;
73917;PMS5003;63639;52.280;5.162;2022-10-01T15:36:30;7;7;
73917;PMS5003;63639;52.280;5.162;2022-10-01T15:38:59;10;5;
73917;PMS5003;63639;52.280;5.162;2022-10-01T15:41:30;5;5;
73917;PMS5003;63639;52.280;5.162;2022-10-01T15:43:58;13;10;
73917;PMS5003;63639;52.280;5.162;2022-10-01T15:46:28;7;7;
73917;PMS5003;63639;52.280;5.162;2022-10-01T15:49:10;7;6;
73917;PMS5003;63639;52.280;5.162;2022-10-01T15:51:45;11;10;
73917;PMS5003;63639;52.280;5.162;2022-10-01T15:54:15;14;13;
73917;PMS5003;63639;52.280;5.162;2022-10-01T15:56:44;9;9;
73917;PMS5003;63639;52.280;5.162;2022-10-01T15:59:14;10;9;
73917;PMS5003;63639;52.280;5.162;2022-10-01T16:01:45;9;9;
73917;PMS5003;63639;52.280;5.162;2022-10-01T16:04:13;11;9;
73917;PMS5003;63639;52.280;5.162;2022-10-01T16:06:41;11;9;
73917;PMS5003;63639;52.280;5.162;2022-10-01T16:09:10;8;8;
73917;PMS5003;63639;52.280;5.162;2022-10-01T16:11:51;7;7;
73917;PMS5003;63639;52.280;5.162;2022-10-01T16:14:20;6;6;
73917;PMS5003;63639;52.280;5.162;2022-10-01T16:17:17;9;8;
73917;PMS5003;63639;52.280;5.162;2022-10-01T16:19:51;10;9;
73917;PMS5003;63639;52.280;5.162;2022-10-01T16:22:20;9;8;
73917;PMS5003;63639;52.280;5.162;2022-10-01T16:24:50;10;8;
73917;PMS5003;63639;52.280;5.162;2022-10-01T16:27:19;7;7;
73917;PMS5003;63639;52.280;5.162;2022-10-01T16:29:48;7;7;
73917;PMS5003;63639;52.280;5.162;2022-10-01T16:32:20;7;7;
73917;PMS5003;63639;52.280;5.162;2022-10-01T16:34:48;7;7;
73917;PMS5003;63639;52.280;5.162;2022-10-01T16:37:16;7;7;
73917;PMS5003;63639;52.280;5.162;2022-10-01T16:39:43;8;5;
73917;PMS5003;63639;52.280;5.162;2022-10-01T16:42:14;8;8;
73917;PMS5003;63639;52.280;5.162;2022-10-01T16:44:44;10;6;
73917;PMS5003;63639;52.280;5.162;2022-10-01T16:47:11;7;7;
73917;PMS5003;63639;52.280;5.162;2022-10-01T16:49:39;5;5;
73917;PMS5003;63639;52.280;5.162;2022-10-01T16:52:08;7;7;
73917;PMS5003;63639;52.280;5.162;2022-10-01T16:54:38;8;8;
73917;PMS5003;63639;52.280;5.162;2022-10-01T16:57:05;9;9;
73917;PMS5003;63639;52.280;5.162;2022-10-01T16:59:32;6;6;
73917;PMS5003;63639;52.280;5.162;2022-10-01T17:01:59;7;7;
73917;PMS5003;63639;52.280;5.162;2022-10-01T17:04:27;7;6;
73917;PMS5003;63639;52.280;5.162;2022-10-01T17:06:54;8;8;
73917;PMS5003;63639;52.280;5.162;2022-10-01T17:09:22;8;8;
73917;PMS5003;63639;52.280;5.162;2022-10-01T17:11:54;6;6;